createdAt,value
2019-02-28T00:00:18.343Z,8.00
2019-02-28T00:02:46.813Z,7.77
2019-02-28T00:05:15.326Z,6.83
2019-02-28T00:07:43.785Z,8.20
2019-02-28T00:10:12.450Z,8.63
2019-02-28T00:12:40.925Z,8.10
2019-02-28T00:15:10.140Z,7.63
2019-02-28T00:17:42.503Z,7.30
2019-02-28T00:20:09.699Z,7.57
2019-02-28T00:22:38.186Z,8.07
2019-02-28T00:25:09.012Z,7.83
2019-02-28T00:27:37.490Z,8.17
2019-02-28T00:30:16.627Z,7.33
2019-02-28T00:32:45.087Z,8.00
2019-02-28T00:35:14.115Z,8.03
2019-02-28T00:37:42.635Z,7.57
2019-02-28T00:40:11.761Z,7.40
2019-02-28T00:42:40.256Z,8.17
2019-02-28T00:45:13.224Z,6.90
2019-02-28T00:47:41.702Z,7.43
2019-02-28T00:50:10.323Z,7.57
2019-02-28T00:52:38.810Z,7.20
2019-02-28T00:55:14.458Z,7.17
2019-02-28T00:57:42.721Z,7.30
2019-02-28T01:00:15.949Z,7.10
2019-02-28T01:02:44.411Z,6.93
2019-02-28T01:05:13.220Z,8.00
2019-02-28T01:07:41.699Z,7.07
2019-02-28T01:10:11.900Z,6.80
2019-02-28T01:12:40.631Z,7.33
2019-02-28T01:15:14.463Z,7.10
2019-02-28T01:17:42.969Z,7.43
2019-02-28T01:20:14.977Z,7.43
2019-02-28T01:22:41.926Z,7.07
2019-02-28T01:25:12.544Z,7.10
2019-02-28T01:27:41.028Z,7.30
2019-02-28T01:30:12.134Z,7.50
2019-02-28T01:32:40.611Z,7.40
2019-02-28T01:35:09.410Z,7.33
2019-02-28T01:37:37.915Z,7.93
2019-02-28T01:40:08.909Z,7.13
2019-02-28T01:42:37.390Z,7.10
2019-02-28T01:45:09.784Z,7.10
2019-02-28T01:47:38.602Z,7.13
2019-02-28T01:50:08.900Z,7.20
2019-02-28T01:52:37.383Z,7.63
2019-02-28T01:55:07.892Z,7.00
2019-02-28T01:57:36.423Z,7.37
2019-02-28T02:00:08.282Z,7.60
2019-02-28T02:02:38.089Z,7.93
2019-02-28T02:05:07.500Z,8.00
2019-02-28T02:07:36.351Z,7.37
2019-02-28T02:10:09.851Z,7.73
2019-02-28T02:12:38.338Z,7.80
2019-02-28T02:15:10.029Z,7.40
2019-02-28T02:17:38.509Z,7.70
2019-02-28T02:20:10.113Z,8.00
2019-02-28T02:22:40.657Z,8.27
2019-02-28T02:25:09.647Z,8.23
2019-02-28T02:27:38.155Z,8.00
2019-02-28T02:30:21.638Z,7.70
2019-02-28T02:32:50.134Z,7.87
2019-02-28T02:35:18.785Z,8.40
2019-02-28T02:37:47.256Z,8.33
2019-02-28T02:40:16.761Z,7.77
2019-02-28T02:42:48.488Z,7.87
2019-02-28T02:45:15.973Z,9.27
2019-02-28T02:47:44.629Z,8.53
2019-02-28T02:50:14.543Z,8.87
2019-02-28T02:52:43.574Z,8.07
2019-02-28T02:55:13.331Z,9.30
2019-02-28T02:57:42.033Z,9.07
2019-02-28T03:00:19.990Z,9.30
2019-02-28T03:02:48.473Z,9.10
2019-02-28T03:05:16.943Z,8.73
2019-02-28T03:07:45.414Z,9.67
2019-02-28T03:10:17.964Z,9.03
2019-02-28T03:12:47.323Z,9.23
2019-02-28T03:15:16.912Z,9.17
2019-02-28T03:17:47.142Z,10.30
2019-02-28T03:20:15.832Z,9.87
2019-02-28T03:22:44.303Z,10.10
2019-02-28T03:25:15.086Z,10.30
2019-02-28T03:27:43.572Z,10.87
2019-02-28T03:30:29.335Z,9.63
2019-02-28T03:32:52.249Z,10.10
2019-02-28T03:35:20.798Z,10.73
2019-02-28T03:37:49.382Z,10.73
2019-02-28T03:40:17.855Z,10.87
2019-02-28T03:42:46.354Z,11.10
2019-02-28T03:45:16.659Z,10.90
2019-02-28T03:47:45.442Z,11.47
2019-02-28T03:50:14.335Z,11.43
2019-02-28T03:52:44.677Z,12.37
2019-02-28T03:55:14.448Z,11.00
2019-02-28T03:57:43.222Z,11.67
2019-02-28T04:00:17.488Z,11.27
2019-02-28T04:02:45.982Z,11.90
2019-02-28T04:05:14.459Z,11.37
2019-02-28T04:07:42.948Z,12.23
2019-02-28T04:10:16.679Z,12.40
2019-02-28T04:12:45.763Z,11.80
2019-02-28T04:15:15.935Z,12.07
2019-02-28T04:17:44.415Z,12.20
2019-02-28T04:20:12.894Z,12.87
2019-02-28T04:22:41.412Z,12.30
2019-02-28T04:25:10.805Z,12.50
2019-02-28T04:27:40.371Z,12.50
2019-02-28T04:30:15.972Z,14.17
2019-02-28T04:32:44.487Z,13.03
2019-02-28T04:35:13.272Z,14.07
2019-02-28T04:37:46.550Z,13.63
2019-02-28T04:40:13.129Z,14.20
2019-02-28T04:42:41.617Z,14.20
2019-02-28T04:45:15.876Z,15.07
2019-02-28T04:47:44.359Z,14.70
2019-02-28T04:50:13.389Z,15.03
2019-02-28T04:52:46.804Z,14.83
2019-02-28T04:55:12.358Z,15.87
2019-02-28T04:57:40.837Z,14.97
2019-02-28T05:00:19.832Z,15.40
2019-02-28T05:02:53.987Z,16.33
2019-02-28T05:05:18.601Z,17.10
2019-02-28T05:07:47.084Z,16.53
2019-02-28T05:10:15.570Z,17.03
2019-02-28T05:12:44.076Z,16.30
2019-02-28T05:15:14.270Z,16.83
2019-02-28T05:17:42.753Z,17.57
2019-02-28T05:20:12.320Z,17.30
2019-02-28T05:22:41.212Z,17.00
2019-02-28T05:25:10.956Z,17.63
2019-02-28T05:27:39.440Z,17.10
2019-02-28T05:30:19.528Z,18.43
2019-02-28T05:32:47.958Z,17.93
2019-02-28T05:35:16.432Z,17.73
2019-02-28T05:37:48.123Z,18.90
2019-02-28T05:40:16.168Z,18.70
2019-02-28T05:42:44.623Z,19.07
2019-02-28T05:45:14.820Z,18.47
2019-02-28T05:47:46.977Z,20.10
2019-02-28T05:50:16.670Z,19.70
2019-02-28T05:52:44.439Z,20.50
2019-02-28T05:55:12.992Z,19.97
2019-02-28T05:57:44.376Z,20.63
2019-02-28T06:00:16.717Z,21.27
2019-02-28T06:02:45.427Z,21.23
2019-02-28T06:05:13.931Z,20.77
2019-02-28T06:07:42.398Z,21.67
2019-02-28T06:10:14.588Z,21.17
2019-02-28T06:12:44.948Z,23.53
2019-02-28T06:15:16.980Z,21.37
2019-02-28T06:17:45.464Z,21.77
2019-02-28T06:20:16.548Z,22.97
2019-02-28T06:22:44.815Z,22.17
2019-02-28T06:25:22.136Z,22.90
2019-02-28T06:27:49.015Z,23.73
2019-02-28T06:30:17.293Z,23.87
2019-02-28T06:32:45.764Z,24.03
2019-02-28T06:35:17.703Z,23.40
2019-02-28T06:37:44.446Z,22.40
2019-02-28T06:40:15.214Z,24.67
2019-02-28T06:42:46.654Z,24.27
2019-02-28T06:45:18.868Z,24.13
2019-02-28T06:47:49.617Z,25.93
2019-02-28T06:50:17.747Z,24.27
2019-02-28T06:52:46.220Z,25.87
2019-02-28T06:55:22.526Z,25.60
2019-02-28T06:57:51.014Z,25.60
2019-02-28T07:00:19.559Z,25.23
2019-02-28T07:02:50.037Z,26.63
2019-02-28T07:05:18.342Z,26.20
2019-02-28T07:07:49.140Z,27.30
2019-02-28T07:10:18.064Z,25.53
2019-02-28T07:12:46.606Z,28.30
2019-02-28T07:15:15.285Z,27.17
2019-02-28T07:17:46.283Z,27.20
2019-02-28T07:20:19.165Z,28.03
2019-02-28T07:22:47.982Z,28.10
2019-02-28T07:25:16.475Z,27.37
2019-02-28T07:27:45.019Z,27.90
2019-02-28T07:30:20.967Z,28.07
2019-02-28T07:32:49.469Z,28.90
2019-02-28T07:35:17.924Z,29.47
2019-02-28T07:37:46.423Z,29.50
2019-02-28T07:40:17.387Z,30.13
2019-02-28T07:42:46.252Z,29.50
2019-02-28T07:45:15.657Z,28.73
2019-02-28T07:47:44.239Z,30.13
2019-02-28T07:50:16.527Z,31.53
2019-02-28T07:52:45.016Z,32.40
2019-02-28T07:55:16.543Z,30.17
2019-02-28T07:57:45.179Z,31.63
2019-02-28T08:00:18.132Z,29.83
2019-02-28T08:02:46.853Z,29.37
2019-02-28T08:05:15.690Z,31.47
2019-02-28T08:07:50.487Z,29.23
2019-02-28T08:10:28.857Z,32.80
2019-02-28T08:12:57.336Z,32.07
2019-02-28T08:15:29.559Z,31.03
2019-02-28T08:17:58.027Z,32.80
2019-02-28T08:20:26.537Z,31.80
2019-02-28T08:22:56.860Z,31.63
2019-02-28T08:25:25.209Z,33.30
2019-02-28T08:27:58.990Z,31.93
2019-02-28T08:30:29.741Z,32.43
2019-02-28T08:32:58.216Z,34.27
2019-02-28T08:35:26.720Z,33.60
2019-02-28T08:37:57.117Z,33.50
2019-02-28T08:40:27.723Z,34.40
2019-02-28T08:42:56.313Z,32.27
2019-02-28T08:45:24.851Z,33.17
2019-02-28T08:47:56.653Z,34.17
2019-02-28T08:50:25.692Z,33.73
2019-02-28T08:53:02.189Z,33.93
2019-02-28T08:55:30.650Z,34.63
2019-02-28T08:58:05.295Z,36.17
2019-02-28T09:00:32.916Z,34.40
2019-02-28T09:03:00.869Z,35.10
2019-02-28T09:05:30.188Z,34.33
2019-02-28T09:07:58.883Z,36.67
2019-02-28T09:10:27.665Z,34.60
2019-02-28T09:12:56.142Z,37.17
2019-02-28T09:15:29.866Z,34.67
2019-02-28T09:17:58.437Z,35.77
2019-02-28T09:20:25.303Z,35.97
2019-02-28T09:22:53.764Z,36.20
2019-02-28T09:25:23.516Z,37.30
2019-02-28T09:27:52.161Z,35.73
2019-02-28T09:30:29.751Z,38.17
2019-02-28T09:32:59.031Z,36.87
2019-02-28T09:35:27.560Z,36.17
2019-02-28T09:37:56.043Z,35.33
2019-02-28T09:40:25.704Z,36.10
2019-02-28T09:42:54.840Z,36.27
2019-02-28T09:45:28.140Z,38.10
2019-02-28T09:48:00.764Z,36.67
2019-02-28T09:50:27.114Z,35.67
2019-02-28T09:52:55.592Z,36.50
2019-02-28T09:55:24.085Z,36.20
2019-02-28T09:57:54.837Z,35.00
2019-02-28T10:00:28.647Z,35.93
2019-02-28T10:02:57.191Z,36.17
2019-02-28T10:05:25.705Z,36.10
2019-02-28T10:07:54.349Z,35.27
2019-02-28T10:10:27.160Z,35.07
2019-02-28T10:12:56.854Z,36.30
2019-02-28T10:15:26.068Z,35.23
2019-02-28T10:17:54.703Z,34.60
2019-02-28T10:20:27.226Z,33.87
2019-02-28T10:22:56.511Z,37.43
2019-02-28T10:25:25.083Z,32.87
2019-02-28T10:27:54.598Z,35.00
2019-02-28T10:30:31.619Z,34.17
2019-02-28T10:32:55.327Z,34.57
2019-02-28T10:35:23.828Z,34.50
2019-02-28T10:37:57.030Z,34.77
2019-02-28T10:40:30.799Z,34.83
2019-02-28T10:42:59.335Z,34.63
2019-02-28T10:45:28.049Z,33.53
2019-02-28T10:47:56.553Z,31.97
2019-02-28T10:50:37.070Z,32.70
2019-02-28T10:53:06.175Z,31.50
2019-02-28T10:55:35.027Z,32.13
2019-02-28T10:58:03.671Z,33.13
2019-02-28T11:00:34.359Z,32.17
2019-02-28T11:03:03.120Z,32.10
2019-02-28T11:05:36.268Z,32.20
2019-02-28T11:08:06.297Z,31.93
2019-02-28T11:10:42.756Z,33.20
2019-02-28T11:13:17.342Z,31.23
2019-02-28T11:15:48.330Z,31.27
2019-02-28T11:18:16.358Z,32.60
2019-02-28T11:20:45.499Z,32.37
2019-02-28T11:23:15.641Z,32.90
2019-02-28T11:25:44.634Z,31.57
2019-02-28T11:28:14.629Z,32.57
2019-02-28T11:30:45.567Z,31.13
2019-02-28T11:33:14.726Z,33.60
2019-02-28T11:35:43.278Z,32.03
2019-02-28T11:38:12.672Z,31.77
2019-02-28T11:40:43.647Z,31.90
2019-02-28T11:43:11.658Z,32.90
2019-02-28T11:45:43.520Z,33.73
2019-02-28T11:48:20.126Z,33.73
2019-02-28T11:50:48.297Z,34.27
2019-02-28T11:53:16.803Z,33.73
2019-02-28T11:55:45.297Z,33.87
2019-02-28T11:58:17.625Z,33.47
2019-02-28T12:00:44.175Z,33.50
2019-02-28T12:03:12.679Z,31.10
2019-02-28T12:05:41.158Z,31.77
2019-02-28T12:08:10.679Z,31.57
2019-02-28T12:10:39.384Z,32.97
2019-02-28T12:13:08.066Z,31.87
2019-02-28T12:15:39.307Z,31.93
2019-02-28T12:18:08.019Z,32.20
2019-02-28T12:20:36.492Z,32.60
2019-02-28T12:23:05.060Z,31.93
2019-02-28T12:25:33.546Z,32.33
2019-02-28T12:28:02.843Z,33.33
2019-02-28T12:30:34.364Z,32.43
2019-02-28T12:33:02.926Z,32.97
2019-02-28T12:35:37.415Z,32.33
2019-02-28T12:38:01.803Z,31.27
2019-02-28T12:40:36.050Z,30.80
2019-02-28T12:43:09.756Z,31.50
2019-02-28T12:45:45.462Z,32.00
2019-02-28T12:48:13.790Z,32.90
2019-02-28T12:50:43.147Z,31.87
2019-02-28T12:53:11.719Z,31.73
2019-02-28T12:55:40.364Z,32.27
2019-02-28T12:58:08.975Z,31.47
2019-02-28T13:00:42.315Z,31.20
2019-02-28T13:03:11.224Z,30.33
2019-02-28T13:05:39.870Z,31.97
2019-02-28T13:08:08.362Z,31.37
2019-02-28T13:10:37.170Z,30.30
2019-02-28T13:13:07.681Z,30.40
2019-02-28T13:15:36.613Z,31.23
2019-02-28T13:18:09.047Z,32.57
2019-02-28T13:20:41.014Z,30.40
2019-02-28T13:23:09.524Z,32.30
2019-02-28T13:25:37.984Z,33.20
2019-02-28T13:28:07.841Z,32.33
2019-02-28T13:30:39.696Z,31.90
2019-02-28T13:33:06.877Z,33.00
2019-02-28T13:35:41.424Z,33.50
2019-02-28T13:38:07.956Z,33.50
2019-02-28T13:40:36.598Z,33.00
2019-02-28T13:43:05.533Z,33.57
2019-02-28T13:45:34.020Z,33.53
2019-02-28T13:48:03.504Z,32.27
2019-02-28T13:50:36.449Z,33.60
2019-02-28T13:53:17.290Z,32.83
2019-02-28T13:55:37.144Z,32.87
2019-02-28T13:58:05.781Z,33.17
2019-02-28T14:00:43.585Z,34.00
2019-02-28T14:03:13.366Z,31.40
2019-02-28T14:05:42.017Z,32.97
2019-02-28T14:08:12.077Z,34.10
2019-02-28T14:10:41.420Z,33.40
2019-02-28T14:13:10.027Z,32.93
2019-02-28T14:15:41.020Z,34.03
2019-02-28T14:18:10.686Z,33.67
2019-02-28T14:20:39.722Z,33.43
2019-02-28T14:23:08.261Z,33.07
2019-02-28T14:25:39.652Z,33.13
2019-02-28T14:28:06.981Z,32.77
2019-02-28T14:30:35.455Z,32.63
2019-02-28T14:33:04.242Z,33.77
2019-02-28T14:35:35.174Z,34.07
2019-02-28T14:38:02.937Z,33.43
2019-02-28T14:40:31.403Z,32.37
2019-02-28T14:42:59.904Z,34.43
2019-02-28T14:45:31.437Z,33.03
2019-02-28T14:48:00.771Z,33.50
2019-02-28T14:50:30.337Z,34.27
2019-02-28T14:52:59.211Z,32.47
2019-02-28T14:55:29.384Z,32.17
2019-02-28T14:57:58.185Z,31.43
2019-02-28T15:00:29.937Z,33.97
2019-02-28T15:03:02.363Z,35.00
2019-02-28T15:05:31.402Z,34.13
2019-02-28T15:08:00.232Z,35.10
2019-02-28T15:10:30.389Z,33.33
2019-02-28T15:13:00.579Z,34.50
2019-02-28T15:15:29.744Z,33.33
2019-02-28T15:17:58.325Z,32.17
2019-02-28T15:20:31.497Z,32.57
2019-02-28T15:22:59.390Z,33.40
2019-02-28T15:25:29.106Z,32.83
2019-02-28T15:27:57.576Z,31.60
2019-02-28T15:30:30.441Z,35.00
2019-02-28T15:32:59.027Z,34.40
2019-02-28T15:35:27.803Z,32.77
2019-02-28T15:37:57.215Z,33.13
2019-02-28T15:40:43.976Z,33.77
2019-02-28T15:43:16.985Z,34.60
2019-02-28T15:45:42.683Z,34.13
2019-02-28T15:48:11.166Z,34.03
2019-02-28T15:50:39.718Z,34.00
2019-02-28T15:53:11.420Z,36.00
2019-02-28T15:55:38.658Z,33.40
2019-02-28T15:58:07.338Z,36.07
2019-02-28T16:00:37.059Z,36.87
2019-02-28T16:03:06.066Z,35.83
2019-02-28T16:05:34.585Z,34.83
2019-02-28T16:08:09.029Z,37.77
2019-02-28T16:10:36.476Z,37.50
2019-02-28T16:13:07.065Z,36.70
2019-02-28T16:15:35.891Z,38.63
2019-02-28T16:18:05.107Z,38.93
2019-02-28T16:20:33.607Z,37.27
2019-02-28T16:23:02.331Z,41.37
2019-02-28T16:25:36.238Z,37.50
2019-02-28T16:28:09.184Z,39.40
2019-02-28T16:30:39.079Z,39.20
2019-02-28T16:33:07.622Z,40.57
2019-02-28T16:35:36.226Z,40.43
2019-02-28T16:38:06.464Z,39.57
2019-02-28T16:40:35.143Z,39.37
2019-02-28T16:43:03.695Z,40.07
2019-02-28T16:45:40.951Z,40.27
2019-02-28T16:48:09.900Z,41.83
2019-02-28T16:50:38.391Z,40.57
2019-02-28T16:53:06.873Z,40.30
2019-02-28T16:55:35.559Z,42.67
2019-02-28T16:58:04.267Z,41.47
2019-02-28T17:00:32.763Z,42.77
2019-02-28T17:03:04.160Z,44.37
2019-02-28T17:05:31.632Z,44.70
2019-02-28T17:08:00.452Z,44.27
2019-02-28T17:13:24.393Z,45.03
2019-02-28T17:16:01.486Z,43.07
2019-02-28T17:18:29.305Z,42.47
2019-02-28T17:20:57.794Z,42.80
2019-02-28T17:23:26.348Z,43.37
2019-02-28T17:25:56.483Z,43.20
2019-02-28T17:28:35.122Z,43.20
2019-02-28T17:31:23.644Z,44.20
2019-02-28T17:33:52.385Z,44.00
2019-02-28T17:36:20.871Z,44.63
2019-02-28T17:38:49.345Z,44.27
2019-02-28T17:41:17.904Z,43.37
2019-02-28T17:44:05.659Z,41.37
2019-02-28T17:46:34.151Z,42.00
2019-02-28T17:49:26.447Z,38.63
2019-02-28T17:51:58.614Z,38.97
2019-02-28T17:54:36.365Z,36.87
2019-02-28T17:57:19.775Z,39.27
2019-02-28T18:00:03.490Z,37.13
2019-02-28T18:02:49.329Z,39.00
2019-02-28T18:05:33.707Z,37.50
2019-02-28T18:08:25.816Z,37.97
2019-02-28T18:11:09.363Z,38.20
2019-02-28T18:13:59.089Z,37.93
2019-02-28T18:16:49.069Z,37.27
2019-02-28T18:19:33.565Z,37.73
2019-02-28T18:22:16.105Z,37.53
2019-02-28T18:25:05.135Z,38.87
2019-02-28T18:27:51.882Z,37.17
2019-02-28T18:30:46.366Z,38.57
2019-02-28T18:33:14.928Z,38.43
2019-02-28T18:35:43.404Z,37.00
2019-02-28T18:38:11.903Z,37.23
2019-02-28T18:40:40.383Z,37.57
2019-02-28T18:43:08.889Z,38.43
2019-02-28T18:45:37.362Z,39.03
2019-02-28T18:48:05.850Z,36.90
2019-02-28T18:50:34.323Z,37.57
2019-02-28T18:53:02.826Z,36.73
2019-02-28T18:55:34.900Z,38.60
2019-02-28T18:58:01.550Z,39.63
2019-02-28T19:00:29.992Z,39.50
2019-02-28T19:02:58.487Z,40.33
2019-02-28T19:05:26.960Z,39.30
2019-02-28T19:07:55.456Z,39.27
2019-02-28T19:10:23.953Z,39.77
2019-02-28T19:12:52.511Z,39.90
2019-02-28T19:15:20.998Z,40.67
2019-02-28T19:17:49.468Z,41.63
2019-02-28T19:20:17.964Z,40.90
2019-02-28T19:22:46.433Z,39.50
2019-02-28T19:25:14.925Z,40.87
2019-02-28T19:27:43.386Z,41.30
2019-02-28T19:30:14.036Z,39.67
2019-02-28T19:32:42.679Z,41.63
2019-02-28T19:35:11.254Z,41.10
2019-02-28T19:37:39.732Z,41.47
2019-02-28T19:40:13.215Z,41.70
2019-02-28T19:42:41.692Z,43.53
2019-02-28T19:45:13.624Z,40.77
2019-02-28T19:47:42.101Z,40.77
2019-02-28T19:50:11.441Z,41.73
2019-02-28T19:52:39.938Z,41.13
2019-02-28T19:55:11.396Z,42.73
2019-02-28T19:57:39.877Z,44.30
2019-02-28T20:00:19.958Z,42.57
2019-02-28T20:02:48.519Z,42.40
2019-02-28T20:05:17.073Z,43.30
2019-02-28T20:07:45.624Z,42.37
2019-02-28T20:10:19.109Z,41.33
2019-02-28T20:12:47.571Z,42.67
2019-02-28T20:15:18.409Z,43.43
2019-02-28T20:17:46.883Z,41.57
2019-02-28T20:20:18.967Z,41.43
2019-02-28T20:22:47.430Z,41.73
2019-02-28T20:25:16.734Z,40.73
2019-02-28T20:27:45.251Z,40.77
2019-02-28T20:30:17.072Z,42.80
2019-02-28T20:32:45.545Z,42.23
2019-02-28T20:35:14.071Z,41.80
2019-02-28T20:37:42.724Z,42.97
2019-02-28T20:40:19.540Z,42.20
2019-02-28T20:42:48.048Z,41.03
2019-02-28T20:45:16.518Z,41.00
2019-02-28T20:47:44.976Z,40.67
2019-02-28T20:50:25.747Z,41.57
2019-02-28T20:52:54.219Z,39.60
2019-02-28T20:55:22.937Z,39.53
2019-02-28T20:57:51.417Z,39.03
2019-02-28T21:00:21.625Z,41.50
2019-02-28T21:02:50.100Z,38.77
2019-02-28T21:05:18.604Z,39.53
2019-02-28T21:07:47.086Z,38.27
2019-02-28T21:10:15.824Z,41.13
2019-02-28T21:12:44.301Z,39.73
2019-02-28T21:15:13.430Z,37.27
2019-02-28T21:17:41.925Z,38.03
2019-02-28T21:20:17.708Z,38.23
2019-02-28T21:22:46.187Z,36.03
2019-02-28T21:25:19.104Z,37.37
2019-02-28T21:27:47.582Z,36.73
2019-02-28T21:30:18.599Z,37.27
2019-02-28T21:32:47.259Z,37.53
2019-02-28T21:35:16.895Z,34.77
2019-02-28T21:37:46.906Z,35.07
2019-02-28T21:40:19.828Z,34.53
2019-02-28T21:42:48.486Z,33.27
2019-02-28T21:45:19.451Z,32.43
2019-02-28T21:47:47.999Z,32.40
2019-02-28T21:50:18.024Z,32.27
2019-02-28T21:52:46.757Z,31.67
2019-02-28T21:55:17.378Z,32.37
2019-02-28T21:57:46.031Z,30.73
2019-02-28T22:00:30.660Z,29.63
2019-02-28T22:02:59.131Z,28.70
2019-02-28T22:05:27.612Z,28.43
2019-02-28T22:07:56.080Z,27.73
2019-02-28T22:10:24.547Z,27.47
2019-02-28T22:12:53.041Z,27.17
2019-02-28T22:15:22.651Z,25.90
2019-02-28T22:17:51.151Z,26.27
2019-02-28T22:20:19.613Z,25.60
2019-02-28T22:22:48.128Z,24.93
2019-02-28T22:25:17.225Z,26.13
2019-02-28T22:27:45.725Z,25.90
2019-02-28T22:30:41.989Z,24.90
2019-02-28T22:33:27.490Z,24.40
2019-02-28T22:36:00.602Z,23.77
2019-02-28T22:38:29.065Z,23.33
2019-02-28T22:40:57.545Z,24.23
2019-02-28T22:43:26.035Z,24.30
2019-02-28T22:45:54.505Z,23.00
2019-02-28T22:48:23.011Z,23.83
2019-02-28T22:50:51.484Z,22.73
2019-02-28T22:53:19.961Z,25.00
2019-02-28T22:55:48.433Z,24.50
2019-02-28T22:58:16.935Z,23.37
2019-02-28T23:01:07.732Z,24.47
2019-02-28T23:03:36.964Z,25.50
2019-02-28T23:06:06.171Z,24.93
2019-02-28T23:08:34.932Z,25.27
2019-02-28T23:11:03.572Z,25.20
2019-02-28T23:13:32.199Z,23.87
2019-02-28T23:16:00.746Z,24.67
2019-02-28T23:18:29.242Z,24.57
2019-02-28T23:20:57.710Z,24.37
2019-02-28T23:23:26.207Z,24.93
2019-02-28T23:25:54.670Z,24.03
2019-02-28T23:28:29.232Z,24.20
2019-02-28T23:31:06.430Z,25.30
2019-02-28T23:33:34.930Z,26.07
2019-02-28T23:36:03.409Z,24.60
2019-02-28T23:38:31.891Z,24.73
2019-02-28T23:41:00.370Z,23.17
2019-02-28T23:43:28.874Z,24.13
2019-02-28T23:45:57.338Z,24.40
2019-02-28T23:48:25.972Z,25.10
2019-02-28T23:50:54.432Z,25.37
2019-02-28T23:53:22.918Z,25.83
2019-02-28T23:55:51.415Z,24.17
2019-02-28T23:58:19.905Z,25.50
